Abbeville, Mississippi
Current Conditions -  °F | °C
As of 10:35 AM on Tuesday 27 Jan 2015 (Local Time) from KUOX Reporting Station
Clear Clear  
Wind Chill: 50°   Ceiling: Unl
Heat Index: 50°   Visibility: 10mi
Dew Point: 34°   Wind: 10mph
Humidity: 54%   Direction: 10°N
Pressure: 30.14"   Gusts: 18mph
Location:  34.5°N, 89.5°W
Report Text: KUOX 271635Z AUTO 01009G16KT 10SM CLR 10/01 A3014 RMK AO2 PWINO PNO
Loading
Personal Weather Stations






























Interactive Weather Map New forecast layout! Learn more

10-Day Weather Forecast

Advertisements
Track Severe Weather on mobile